Airport View

Enter AWOS ICAO identifier for current METAR.

ex. KFNL

KPRO 261955Z AUTO 35014G19KT 10SM SCT045 00/M08 A3029 RMK AO2 T00011084

26 Feb 2020 20:02

Frequency: 118.0

Phone: 515-465-2269

Other Area AWOS: KBNW - KAMW - KIKV - KDSM

TAF AMD KDSM 261726Z 2617/2718 34013KT P6SM SCT020 TEMPO 2618/2620 BKN019 FM262100 33012KT P6SM FEW250 FM270100 32007KT P6SM FEW150 FM270400 VRB04KT P6SM FEW025 SCT080